sensor_id;sensor_type;location;lat;lon;timestamp;P1;durP1;ratioP1;P2;durP2;ratioP2
18651;SDS011;9455;54.302;10.124;2023-03-23T00:00:11;20.10;;;10.20;;
18651;SDS011;9455;54.302;10.124;2023-03-23T00:02:38;22.67;;;10.27;;
18651;SDS011;9455;54.302;10.124;2023-03-23T00:05:05;16.27;;;10.00;;
18651;SDS011;9455;54.302;10.124;2023-03-23T00:07:33;29.03;;;10.07;;
18651;SDS011;9455;54.302;10.124;2023-03-23T00:10:00;20.93;;;9.90;;
18651;SDS011;9455;54.302;10.124;2023-03-23T00:12:28;22.87;;;10.83;;
18651;SDS011;9455;54.302;10.124;2023-03-23T00:14:59;24.23;;;11.60;;
18651;SDS011;9455;54.302;10.124;2023-03-23T00:17:27;21.03;;;10.60;;
18651;SDS011;9455;54.302;10.124;2023-03-23T00:19:54;24.83;;;10.93;;
18651;SDS011;9455;54.302;10.124;2023-03-23T00:22:21;21.27;;;11.60;;
18651;SDS011;9455;54.302;10.124;2023-03-23T00:24:50;25.70;;;12.17;;
18651;SDS011;9455;54.302;10.124;2023-03-23T00:27:17;28.60;;;12.10;;
18651;SDS011;9455;54.302;10.124;2023-03-23T00:29:43;22.03;;;10.40;;
18651;SDS011;9455;54.302;10.124;2023-03-23T00:32:11;22.43;;;11.27;;
18651;SDS011;9455;54.302;10.124;2023-03-23T00:34:40;20.70;;;11.13;;
18651;SDS011;9455;54.302;10.124;2023-03-23T00:37:09;25.33;;;11.63;;
18651;SDS011;9455;54.302;10.124;2023-03-23T00:39:36;21.67;;;10.30;;
18651;SDS011;9455;54.302;10.124;2023-03-23T00:42:11;26.57;;;12.10;;
18651;SDS011;9455;54.302;10.124;2023-03-23T00:44:38;27.73;;;12.20;;
18651;SDS011;9455;54.302;10.124;2023-03-23T00:47:05;23.60;;;12.17;;
18651;SDS011;9455;54.302;10.124;2023-03-23T00:49:34;20.33;;;10.60;;
18651;SDS011;9455;54.302;10.124;2023-03-23T00:52:03;24.17;;;11.83;;
18651;SDS011;9455;54.302;10.124;2023-03-23T00:54:31;21.27;;;10.50;;
18651;SDS011;9455;54.302;10.124;2023-03-23T00:56:58;19.27;;;10.43;;
18651;SDS011;9455;54.302;10.124;2023-03-23T00:59:25;23.23;;;11.90;;
18651;SDS011;9455;54.302;10.124;2023-03-23T01:01:51;19.93;;;10.63;;
18651;SDS011;9455;54.302;10.124;2023-03-23T01:04:18;27.97;;;10.63;;
18651;SDS011;9455;54.302;10.124;2023-03-23T01:06:46;26.43;;;10.80;;
18651;SDS011;9455;54.302;10.124;2023-03-23T01:09:17;17.37;;;9.60;;
18651;SDS011;9455;54.302;10.124;2023-03-23T01:11:46;22.10;;;10.37;;
18651;SDS011;9455;54.302;10.124;2023-03-23T01:14:15;19.13;;;9.33;;
18651;SDS011;9455;54.302;10.124;2023-03-23T01:16:43;18.80;;;9.60;;
18651;SDS011;9455;54.302;10.124;2023-03-23T01:19:10;22.37;;;11.00;;
18651;SDS011;9455;54.302;10.124;2023-03-23T01:21:36;21.50;;;9.87;;
18651;SDS011;9455;54.302;10.124;2023-03-23T01:24:03;20.53;;;9.13;;
18651;SDS011;9455;54.302;10.124;2023-03-23T01:26:32;16.43;;;8.77;;
18651;SDS011;9455;54.302;10.124;2023-03-23T01:28:59;19.73;;;9.43;;
18651;SDS011;9455;54.302;10.124;2023-03-23T01:31:26;15.43;;;8.50;;
18651;SDS011;9455;54.302;10.124;2023-03-23T01:33:53;17.60;;;9.37;;
18651;SDS011;9455;54.302;10.124;2023-03-23T01:36:21;12.00;;;7.23;;
18651;SDS011;9455;54.302;10.124;2023-03-23T01:38:49;17.57;;;6.70;;
18651;SDS011;9455;54.302;10.124;2023-03-23T01:41:17;12.10;;;6.87;;
18651;SDS011;9455;54.302;10.124;2023-03-23T01:43:56;12.73;;;7.03;;
18651;SDS011;9455;54.302;10.124;2023-03-23T01:46:26;10.43;;;5.77;;
18651;SDS011;9455;54.302;10.124;2023-03-23T01:48:54;9.57;;;5.50;;
18651;SDS011;9455;54.302;10.124;2023-03-23T01:51:23;12.37;;;5.13;;
18651;SDS011;9455;54.302;10.124;2023-03-23T01:53:54;12.30;;;4.97;;
18651;SDS011;9455;54.302;10.124;2023-03-23T01:56:23;6.00;;;4.57;;
18651;SDS011;9455;54.302;10.124;2023-03-23T01:59:04;9.63;;;4.40;;
18651;SDS011;9455;54.302;10.124;2023-03-23T02:01:31;13.13;;;4.07;;
18651;SDS011;9455;54.302;10.124;2023-03-23T02:04:05;7.80;;;4.73;;
18651;SDS011;9455;54.302;10.124;2023-03-23T02:06:32;8.60;;;4.97;;
18651;SDS011;9455;54.302;10.124;2023-03-23T02:08:59;7.90;;;4.30;;
18651;SDS011;9455;54.302;10.124;2023-03-23T02:11:25;5.70;;;4.00;;
18651;SDS011;9455;54.302;10.124;2023-03-23T02:13:52;7.10;;;4.23;;
18651;SDS011;9455;54.302;10.124;2023-03-23T02:16:23;8.30;;;4.83;;
18651;SDS011;9455;54.302;10.124;2023-03-23T02:18:57;7.90;;;4.90;;
18651;SDS011;9455;54.302;10.124;2023-03-23T02:21:39;5.57;;;4.70;;
18651;SDS011;9455;54.302;10.124;2023-03-23T02:33:48;11.73;;;6.17;;
18651;SDS011;9455;54.302;10.124;2023-03-23T02:36:21;12.10;;;6.07;;
18651;SDS011;9455;54.302;10.124;2023-03-23T02:38:55;10.10;;;5.80;;
18651;SDS011;9455;54.302;10.124;2023-03-23T02:41:27;11.13;;;5.93;;
18651;SDS011;9455;54.302;10.124;2023-03-23T02:43:56;8.03;;;5.50;;
18651;SDS011;9455;54.302;10.124;2023-03-23T02:46:24;10.03;;;5.87;;
18651;SDS011;9455;54.302;10.124;2023-03-23T02:48:54;8.17;;;4.80;;
18651;SDS011;9455;54.302;10.124;2023-03-23T02:51:23;9.03;;;4.97;;
18651;SDS011;9455;54.302;10.124;2023-03-23T02:53:51;10.33;;;6.37;;
18651;SDS011;9455;54.302;10.124;2023-03-23T02:56:19;8.60;;;5.63;;
18651;SDS011;9455;54.302;10.124;2023-03-23T02:58:49;7.10;;;5.50;;
18651;SDS011;9455;54.302;10.124;2023-03-23T03:01:45;8.37;;;5.07;;
18651;SDS011;9455;54.302;10.124;2023-03-23T03:04:34;13.10;;;5.67;;
18651;SDS011;9455;54.302;10.124;2023-03-23T03:09:56;6.60;;;5.17;;
18651;SDS011;9455;54.302;10.124;2023-03-23T03:12:30;7.20;;;4.93;;
18651;SDS011;9455;54.302;10.124;2023-03-23T03:15:06;6.33;;;3.70;;
18651;SDS011;9455;54.302;10.124;2023-03-23T03:17:40;8.40;;;4.73;;
18651;SDS011;9455;54.302;10.124;2023-03-23T03:20:12;6.30;;;4.33;;
18651;SDS011;9455;54.302;10.124;2023-03-23T03:22:40;6.83;;;3.73;;
18651;SDS011;9455;54.302;10.124;2023-03-23T03:25:09;5.90;;;3.80;;
18651;SDS011;9455;54.302;10.124;2023-03-23T03:27:40;5.20;;;3.67;;
18651;SDS011;9455;54.302;10.124;2023-03-23T03:30:11;4.83;;;3.57;;
18651;SDS011;9455;54.302;10.124;2023-03-23T03:32:41;5.13;;;4.00;;
18651;SDS011;9455;54.302;10.124;2023-03-23T03:35:15;6.40;;;3.43;;
18651;SDS011;9455;54.302;10.124;2023-03-23T03:37:42;4.63;;;3.43;;
18651;SDS011;9455;54.302;10.124;2023-03-23T03:40:11;8.87;;;3.53;;
18651;SDS011;9455;54.302;10.124;2023-03-23T03:42:41;5.43;;;3.33;;
18651;SDS011;9455;54.302;10.124;2023-03-23T03:45:10;3.07;;;2.73;;
18651;SDS011;9455;54.302;10.124;2023-03-23T03:47:38;5.13;;;3.03;;
18651;SDS011;9455;54.302;10.124;2023-03-23T03:50:05;4.97;;;3.50;;
18651;SDS011;9455;54.302;10.124;2023-03-23T03:52:33;4.40;;;3.40;;
18651;SDS011;9455;54.302;10.124;2023-03-23T03:55:00;2.90;;;2.70;;
18651;SDS011;9455;54.302;10.124;2023-03-23T03:57:27;5.13;;;3.30;;
18651;SDS011;9455;54.302;10.124;2023-03-23T03:59:54;3.53;;;3.10;;
18651;SDS011;9455;54.302;10.124;2023-03-23T04:02:21;3.37;;;2.50;;
18651;SDS011;9455;54.302;10.124;2023-03-23T04:04:48;6.90;;;3.20;;
18651;SDS011;9455;54.302;10.124;2023-03-23T04:07:17;5.07;;;3.30;;
18651;SDS011;9455;54.302;10.124;2023-03-23T04:09:46;4.87;;;3.13;;
18651;SDS011;9455;54.302;10.124;2023-03-23T04:12:12;3.73;;;2.67;;
18651;SDS011;9455;54.302;10.124;2023-03-23T04:14:39;2.83;;;2.63;;
18651;SDS011;9455;54.302;10.124;2023-03-23T04:17:06;4.23;;;2.90;;
18651;SDS011;9455;54.302;10.124;2023-03-23T04:19:34;3.53;;;2.73;;
18651;SDS011;9455;54.302;10.124;2023-03-23T04:22:01;4.37;;;2.43;;
18651;SDS011;9455;54.302;10.124;2023-03-23T04:24:28;4.50;;;2.20;;
18651;SDS011;9455;54.302;10.124;2023-03-23T04:26:58;4.13;;;2.60;;
18651;SDS011;9455;54.302;10.124;2023-03-23T04:29:26;3.90;;;1.73;;
18651;SDS011;9455;54.302;10.124;2023-03-23T04:31:53;1.67;;;1.57;;
18651;SDS011;9455;54.302;10.124;2023-03-23T04:34:20;2.50;;;1.23;;
18651;SDS011;9455;54.302;10.124;2023-03-23T04:36:48;1.53;;;1.53;;
18651;SDS011;9455;54.302;10.124;2023-03-23T04:39:14;1.33;;;1.30;;
18651;SDS011;9455;54.302;10.124;2023-03-23T04:41:41;2.50;;;1.40;;
18651;SDS011;9455;54.302;10.124;2023-03-23T04:44:10;1.23;;;1.23;;
18651;SDS011;9455;54.302;10.124;2023-03-23T04:46:42;0.83;;;0.83;;
18651;SDS011;9455;54.302;10.124;2023-03-23T04:49:14;3.33;;;1.10;;
18651;SDS011;9455;54.302;10.124;2023-03-23T04:51:46;1.90;;;1.03;;
18651;SDS011;9455;54.302;10.124;2023-03-23T04:54:12;2.03;;;0.93;;
18651;SDS011;9455;54.302;10.124;2023-03-23T04:56:39;0.73;;;0.73;;
18651;SDS011;9455;54.302;10.124;2023-03-23T04:59:06;4.33;;;1.10;;
18651;SDS011;9455;54.302;10.124;2023-03-23T05:01:35;0.97;;;0.77;;
18651;SDS011;9455;54.302;10.124;2023-03-23T05:04:03;2.23;;;0.83;;
18651;SDS011;9455;54.302;10.124;2023-03-23T05:06:30;0.60;;;0.60;;
18651;SDS011;9455;54.302;10.124;2023-03-23T05:08:57;1.23;;;0.80;;
18651;SDS011;9455;54.302;10.124;2023-03-23T05:11:23;0.70;;;0.70;;
18651;SDS011;9455;54.302;10.124;2023-03-23T05:13:50;0.97;;;0.83;;
18651;SDS011;9455;54.302;10.124;2023-03-23T05:16:17;1.03;;;1.03;;
18651;SDS011;9455;54.302;10.124;2023-03-23T05:18:44;1.23;;;1.03;;
18651;SDS011;9455;54.302;10.124;2023-03-23T05:21:11;2.10;;;2.00;;
18651;SDS011;9455;54.302;10.124;2023-03-23T05:23:39;1.70;;;1.60;;
18651;SDS011;9455;54.302;10.124;2023-03-23T05:26:05;4.40;;;1.90;;
18651;SDS011;9455;54.302;10.124;2023-03-23T05:28:32;2.60;;;2.27;;
18651;SDS011;9455;54.302;10.124;2023-03-23T05:30:59;7.03;;;2.70;;
18651;SDS011;9455;54.302;10.124;2023-03-23T05:33:26;2.97;;;2.73;;
18651;SDS011;9455;54.302;10.124;2023-03-23T05:35:54;4.90;;;3.80;;
18651;SDS011;9455;54.302;10.124;2023-03-23T05:38:21;5.23;;;3.90;;
18651;SDS011;9455;54.302;10.124;2023-03-23T05:40:47;5.93;;;5.10;;
18651;SDS011;9455;54.302;10.124;2023-03-23T05:43:14;5.90;;;4.90;;
18651;SDS011;9455;54.302;10.124;2023-03-23T05:45:40;9.27;;;6.60;;
18651;SDS011;9455;54.302;10.124;2023-03-23T05:48:07;11.00;;;6.87;;
18651;SDS011;9455;54.302;10.124;2023-03-23T05:50:34;11.07;;;7.50;;
18651;SDS011;9455;54.302;10.124;2023-03-23T05:53:02;14.53;;;8.17;;
18651;SDS011;9455;54.302;10.124;2023-03-23T05:55:29;14.53;;;8.00;;
18651;SDS011;9455;54.302;10.124;2023-03-23T05:57:56;81.00;;;33.87;;
18651;SDS011;9455;54.302;10.124;2023-03-23T06:00:22;34.03;;;15.43;;
18651;SDS011;9455;54.302;10.124;2023-03-23T06:02:49;24.07;;;11.40;;
18651;SDS011;9455;54.302;10.124;2023-03-23T06:05:16;16.90;;;10.57;;
18651;SDS011;9455;54.302;10.124;2023-03-23T06:07:44;16.57;;;10.30;;
18651;SDS011;9455;54.302;10.124;2023-03-23T06:10:12;16.20;;;9.87;;
18651;SDS011;9455;54.302;10.124;2023-03-23T06:12:39;16.33;;;9.27;;
18651;SDS011;9455;54.302;10.124;2023-03-23T06:15:07;18.23;;;10.40;;
18651;SDS011;9455;54.302;10.124;2023-03-23T06:17:34;22.03;;;10.73;;
18651;SDS011;9455;54.302;10.124;2023-03-23T06:20:02;21.80;;;11.27;;
18651;SDS011;9455;54.302;10.124;2023-03-23T06:22:34;20.83;;;10.90;;
18651;SDS011;9455;54.302;10.124;2023-03-23T06:25:01;20.83;;;11.10;;
18651;SDS011;9455;54.302;10.124;2023-03-23T06:27:28;23.40;;;11.00;;
18651;SDS011;9455;54.302;10.124;2023-03-23T06:29:55;20.87;;;11.47;;
18651;SDS011;9455;54.302;10.124;2023-03-23T06:32:22;18.80;;;9.80;;
18651;SDS011;9455;54.302;10.124;2023-03-23T06:34:50;19.53;;;9.93;;
18651;SDS011;9455;54.302;10.124;2023-03-23T06:37:18;17.03;;;10.60;;
18651;SDS011;9455;54.302;10.124;2023-03-23T06:39:44;22.90;;;10.80;;
18651;SDS011;9455;54.302;10.124;2023-03-23T06:42:11;19.27;;;10.63;;
18651;SDS011;9455;54.302;10.124;2023-03-23T06:44:39;16.97;;;10.07;;
18651;SDS011;9455;54.302;10.124;2023-03-23T06:47:06;21.63;;;8.60;;
18651;SDS011;9455;54.302;10.124;2023-03-23T06:49:33;24.90;;;10.17;;
18651;SDS011;9455;54.302;10.124;2023-03-23T06:52:00;14.67;;;8.07;;
18651;SDS011;9455;54.302;10.124;2023-03-23T06:54:28;20.40;;;11.40;;
18651;SDS011;9455;54.302;10.124;2023-03-23T06:56:55;15.03;;;8.73;;
18651;SDS011;9455;54.302;10.124;2023-03-23T06:59:22;15.93;;;8.87;;
18651;SDS011;9455;54.302;10.124;2023-03-23T07:01:50;21.33;;;9.83;;
18651;SDS011;9455;54.302;10.124;2023-03-23T07:04:16;15.63;;;8.40;;
18651;SDS011;9455;54.302;10.124;2023-03-23T07:06:43;14.73;;;7.73;;
18651;SDS011;9455;54.302;10.124;2023-03-23T07:09:10;15.80;;;7.53;;
18651;SDS011;9455;54.302;10.124;2023-03-23T07:11:37;10.23;;;6.63;;
18651;SDS011;9455;54.302;10.124;2023-03-23T07:14:03;10.93;;;6.27;;
18651;SDS011;9455;54.302;10.124;2023-03-23T07:16:30;7.60;;;6.23;;
18651;SDS011;9455;54.302;10.124;2023-03-23T07:18:58;13.00;;;8.10;;
18651;SDS011;9455;54.302;10.124;2023-03-23T07:21:25;10.63;;;7.03;;
18651;SDS011;9455;54.302;10.124;2023-03-23T07:23:52;14.77;;;6.93;;
18651;SDS011;9455;54.302;10.124;2023-03-23T07:26:18;12.63;;;8.07;;
18651;SDS011;9455;54.302;10.124;2023-03-23T07:28:45;9.83;;;6.13;;
18651;SDS011;9455;54.302;10.124;2023-03-23T07:31:12;13.27;;;7.60;;
18651;SDS011;9455;54.302;10.124;2023-03-23T07:33:38;14.60;;;7.90;;
18651;SDS011;9455;54.302;10.124;2023-03-23T07:36:07;9.23;;;6.03;;
18651;SDS011;9455;54.302;10.124;2023-03-23T07:38:34;15.53;;;7.90;;
18651;SDS011;9455;54.302;10.124;2023-03-23T07:41:01;10.77;;;5.63;;
18651;SDS011;9455;54.302;10.124;2023-03-23T07:43:28;9.00;;;6.20;;
18651;SDS011;9455;54.302;10.124;2023-03-23T07:45:55;13.80;;;6.43;;
18651;SDS011;9455;54.302;10.124;2023-03-23T07:48:21;14.60;;;6.40;;
18651;SDS011;9455;54.302;10.124;2023-03-23T07:50:48;6.10;;;4.47;;
18651;SDS011;9455;54.302;10.124;2023-03-23T07:53:16;12.40;;;5.47;;
18651;SDS011;9455;54.302;10.124;2023-03-23T07:55:42;5.90;;;4.67;;
18651;SDS011;9455;54.302;10.124;2023-03-23T07:58:09;7.13;;;4.73;;
18651;SDS011;9455;54.302;10.124;2023-03-23T08:00:36;3.53;;;3.23;;
18651;SDS011;9455;54.302;10.124;2023-03-23T08:03:05;7.83;;;4.07;;
18651;SDS011;9455;54.302;10.124;2023-03-23T08:05:32;4.87;;;2.83;;
18651;SDS011;9455;54.302;10.124;2023-03-23T08:07:59;8.83;;;3.03;;
18651;SDS011;9455;54.302;10.124;2023-03-23T08:10:27;5.67;;;3.07;;
18651;SDS011;9455;54.302;10.124;2023-03-23T08:12:55;6.80;;;2.63;;
18651;SDS011;9455;54.302;10.124;2023-03-23T08:15:24;3.30;;;2.67;;
18651;SDS011;9455;54.302;10.124;2023-03-23T08:17:51;6.33;;;2.73;;
18651;SDS011;9455;54.302;10.124;2023-03-23T08:20:18;7.97;;;2.83;;
18651;SDS011;9455;54.302;10.124;2023-03-23T08:22:45;5.97;;;2.23;;
18651;SDS011;9455;54.302;10.124;2023-03-23T08:25:15;7.20;;;2.07;;
18651;SDS011;9455;54.302;10.124;2023-03-23T08:27:44;4.83;;;1.70;;
18651;SDS011;9455;54.302;10.124;2023-03-23T08:30:12;9.93;;;1.97;;
18651;SDS011;9455;54.302;10.124;2023-03-23T08:32:40;5.93;;;1.60;;
18651;SDS011;9455;54.302;10.124;2023-03-23T08:35:08;7.20;;;2.03;;
18651;SDS011;9455;54.302;10.124;2023-03-23T08:37:36;3.50;;;1.20;;
18651;SDS011;9455;54.302;10.124;2023-03-23T08:40:03;5.80;;;1.77;;
18651;SDS011;9455;54.302;10.124;2023-03-23T08:42:34;3.27;;;2.33;;
18651;SDS011;9455;54.302;10.124;2023-03-23T08:45:03;13.90;;;2.30;;
18651;SDS011;9455;54.302;10.124;2023-03-23T08:47:30;3.73;;;1.50;;
18651;SDS011;9455;54.302;10.124;2023-03-23T08:49:57;7.77;;;2.10;;
18651;SDS011;9455;54.302;10.124;2023-03-23T08:52:23;6.13;;;1.30;;
18651;SDS011;9455;54.302;10.124;2023-03-23T08:54:50;4.43;;;1.97;;
18651;SDS011;9455;54.302;10.124;2023-03-23T08:57:16;5.23;;;1.83;;
18651;SDS011;9455;54.302;10.124;2023-03-23T08:59:44;6.43;;;1.80;;
18651;SDS011;9455;54.302;10.124;2023-03-23T09:02:12;3.87;;;1.53;;
18651;SDS011;9455;54.302;10.124;2023-03-23T09:04:39;10.73;;;1.57;;
18651;SDS011;9455;54.302;10.124;2023-03-23T09:07:07;4.10;;;1.60;;
18651;SDS011;9455;54.302;10.124;2023-03-23T09:09:36;5.50;;;1.80;;
18651;SDS011;9455;54.302;10.124;2023-03-23T09:12:04;3.13;;;1.37;;
18651;SDS011;9455;54.302;10.124;2023-03-23T09:14:31;7.57;;;1.70;;
18651;SDS011;9455;54.302;10.124;2023-03-23T09:16:57;2.13;;;1.63;;
18651;SDS011;9455;54.302;10.124;2023-03-23T09:19:25;22.53;;;1.47;;
18651;SDS011;9455;54.302;10.124;2023-03-23T09:21:52;5.60;;;1.10;;
18651;SDS011;9455;54.302;10.124;2023-03-23T09:24:19;6.67;;;1.57;;
18651;SDS011;9455;54.302;10.124;2023-03-23T09:26:47;7.43;;;1.60;;
18651;SDS011;9455;54.302;10.124;2023-03-23T09:29:13;7.23;;;1.50;;
18651;SDS011;9455;54.302;10.124;2023-03-23T09:31:40;6.13;;;1.60;;
18651;SDS011;9455;54.302;10.124;2023-03-23T09:34:07;10.30;;;2.00;;
18651;SDS011;9455;54.302;10.124;2023-03-23T09:36:36;6.00;;;1.40;;
18651;SDS011;9455;54.302;10.124;2023-03-23T09:39:04;5.33;;;1.57;;
18651;SDS011;9455;54.302;10.124;2023-03-23T09:44:34;9.23;;;1.17;;
18651;SDS011;9455;54.302;10.124;2023-03-23T09:47:12;5.40;;;1.00;;
18651;SDS011;9455;54.302;10.124;2023-03-23T09:49:45;5.53;;;2.50;;
18651;SDS011;9455;54.302;10.124;2023-03-23T09:52:19;11.23;;;1.67;;
18651;SDS011;9455;54.302;10.124;2023-03-23T09:54:46;12.47;;;1.77;;
18651;SDS011;9455;54.302;10.124;2023-03-23T09:57:15;4.80;;;1.70;;
18651;SDS011;9455;54.302;10.124;2023-03-23T09:59:46;7.07;;;1.60;;
18651;SDS011;9455;54.302;10.124;2023-03-23T10:02:20;7.47;;;1.40;;
18651;SDS011;9455;54.302;10.124;2023-03-23T10:04:54;4.13;;;1.50;;
18651;SDS011;9455;54.302;10.124;2023-03-23T10:07:26;13.60;;;1.67;;
18651;SDS011;9455;54.302;10.124;2023-03-23T10:09:55;9.77;;;1.63;;
18651;SDS011;9455;54.302;10.124;2023-03-23T10:12:26;3.33;;;1.50;;
18651;SDS011;9455;54.302;10.124;2023-03-23T10:15:00;3.90;;;1.67;;
18651;SDS011;9455;54.302;10.124;2023-03-23T10:17:37;4.53;;;1.63;;
18651;SDS011;9455;54.302;10.124;2023-03-23T10:23:14;5.00;;;2.13;;
18651;SDS011;9455;54.302;10.124;2023-03-23T10:26:01;10.53;;;2.10;;
18651;SDS011;9455;54.302;10.124;2023-03-23T10:28:35;6.13;;;1.53;;
18651;SDS011;9455;54.302;10.124;2023-03-23T10:31:03;8.27;;;2.17;;
18651;SDS011;9455;54.302;10.124;2023-03-23T10:33:36;14.57;;;2.10;;
18651;SDS011;9455;54.302;10.124;2023-03-23T10:36:08;10.13;;;1.63;;
18651;SDS011;9455;54.302;10.124;2023-03-23T10:38:41;9.23;;;1.43;;
18651;SDS011;9455;54.302;10.124;2023-03-23T10:41:11;6.93;;;2.00;;
18651;SDS011;9455;54.302;10.124;2023-03-23T10:43:39;9.43;;;1.70;;
18651;SDS011;9455;54.302;10.124;2023-03-23T10:46:10;10.50;;;1.80;;
18651;SDS011;9455;54.302;10.124;2023-03-23T10:48:47;10.93;;;1.80;;
18651;SDS011;9455;54.302;10.124;2023-03-23T10:51:16;6.63;;;1.60;;
18651;SDS011;9455;54.302;10.124;2023-03-23T10:53:49;11.33;;;1.23;;
18651;SDS011;9455;54.302;10.124;2023-03-23T10:56:20;7.70;;;1.30;;
18651;SDS011;9455;54.302;10.124;2023-03-23T10:58:50;6.17;;;1.27;;
18651;SDS011;9455;54.302;10.124;2023-03-23T11:01:18;5.10;;;1.10;;
18651;SDS011;9455;54.302;10.124;2023-03-23T11:03:47;3.30;;;1.30;;
18651;SDS011;9455;54.302;10.124;2023-03-23T11:06:19;8.37;;;1.73;;
18651;SDS011;9455;54.302;10.124;2023-03-23T11:08:51;5.07;;;1.10;;
18651;SDS011;9455;54.302;10.124;2023-03-23T11:11:20;14.00;;;1.70;;
18651;SDS011;9455;54.302;10.124;2023-03-23T11:13:56;8.67;;;1.07;;
18651;SDS011;9455;54.302;10.124;2023-03-23T11:16:25;6.73;;;1.20;;
18651;SDS011;9455;54.302;10.124;2023-03-23T11:18:53;15.30;;;1.50;;
18651;SDS011;9455;54.302;10.124;2023-03-23T11:21:20;6.63;;;1.60;;
18651;SDS011;9455;54.302;10.124;2023-03-23T11:23:50;7.97;;;1.30;;
18651;SDS011;9455;54.302;10.124;2023-03-23T11:26:20;6.77;;;1.60;;
18651;SDS011;9455;54.302;10.124;2023-03-23T11:28:51;12.53;;;1.80;;
18651;SDS011;9455;54.302;10.124;2023-03-23T11:31:21;12.23;;;1.27;;
18651;SDS011;9455;54.302;10.124;2023-03-23T11:33:52;19.23;;;1.83;;
18651;SDS011;9455;54.302;10.124;2023-03-23T11:36:27;12.77;;;1.70;;
18651;SDS011;9455;54.302;10.124;2023-03-23T11:38:58;8.33;;;1.60;;
18651;SDS011;9455;54.302;10.124;2023-03-23T11:41:25;8.37;;;1.37;;
18651;SDS011;9455;54.302;10.124;2023-03-23T11:43:57;4.10;;;1.33;;
18651;SDS011;9455;54.302;10.124;2023-03-23T11:46:34;10.13;;;2.00;;
18651;SDS011;9455;54.302;10.124;2023-03-23T11:49:08;12.67;;;1.60;;
18651;SDS011;9455;54.302;10.124;2023-03-23T11:51:41;9.57;;;1.73;;
18651;SDS011;9455;54.302;10.124;2023-03-23T11:54:15;7.60;;;1.43;;
18651;SDS011;9455;54.302;10.124;2023-03-23T11:56:45;10.20;;;1.97;;
18651;SDS011;9455;54.302;10.124;2023-03-23T11:59:13;6.90;;;1.43;;
18651;SDS011;9455;54.302;10.124;2023-03-23T12:01:48;9.20;;;1.97;;
18651;SDS011;9455;54.302;10.124;2023-03-23T12:04:23;9.67;;;2.37;;
18651;SDS011;9455;54.302;10.124;2023-03-23T12:07:05;17.20;;;2.10;;
18651;SDS011;9455;54.302;10.124;2023-03-23T12:09:45;8.97;;;2.03;;
18651;SDS011;9455;54.302;10.124;2023-03-23T12:12:18;15.90;;;2.50;;
18651;SDS011;9455;54.302;10.124;2023-03-23T12:14:54;6.17;;;1.50;;
18651;SDS011;9455;54.302;10.124;2023-03-23T12:17:33;12.87;;;2.77;;
18651;SDS011;9455;54.302;10.124;2023-03-23T12:20:14;10.67;;;1.67;;
18651;SDS011;9455;54.302;10.124;2023-03-23T12:22:50;13.57;;;2.20;;
18651;SDS011;9455;54.302;10.124;2023-03-23T12:28:36;14.73;;;2.60;;
18651;SDS011;9455;54.302;10.124;2023-03-23T12:31:12;9.40;;;1.60;;
18651;SDS011;9455;54.302;10.124;2023-03-23T12:33:47;20.93;;;2.80;;
18651;SDS011;9455;54.302;10.124;2023-03-23T12:36:22;9.50;;;2.87;;
18651;SDS011;9455;54.302;10.124;2023-03-23T12:39:00;6.43;;;1.63;;
18651;SDS011;9455;54.302;10.124;2023-03-23T12:41:41;14.33;;;1.90;;
18651;SDS011;9455;54.302;10.124;2023-03-23T12:44:17;20.17;;;3.17;;
18651;SDS011;9455;54.302;10.124;2023-03-23T12:47:00;11.25;;;2.15;;
18651;SDS011;9455;54.302;10.124;2023-03-23T12:49:41;11.37;;;1.67;;
18651;SDS011;9455;54.302;10.124;2023-03-23T12:52:14;11.27;;;2.00;;
18651;SDS011;9455;54.302;10.124;2023-03-23T12:54:47;12.03;;;1.97;;
18651;SDS011;9455;54.302;10.124;2023-03-23T12:57:22;16.23;;;1.83;;
18651;SDS011;9455;54.302;10.124;2023-03-23T12:59:58;9.10;;;1.90;;
18651;SDS011;9455;54.302;10.124;2023-03-23T13:02:39;25.40;;;2.97;;
18651;SDS011;9455;54.302;10.124;2023-03-23T13:05:11;15.30;;;2.87;;
18651;SDS011;9455;54.302;10.124;2023-03-23T13:07:54;16.97;;;2.77;;
18651;SDS011;9455;54.302;10.124;2023-03-23T13:10:27;13.50;;;2.13;;
18651;SDS011;9455;54.302;10.124;2023-03-23T13:12:55;17.60;;;3.03;;
18651;SDS011;9455;54.302;10.124;2023-03-23T13:15:27;10.53;;;1.70;;
18651;SDS011;9455;54.302;10.124;2023-03-23T13:18:04;15.23;;;2.40;;
18651;SDS011;9455;54.302;10.124;2023-03-23T13:20:39;13.97;;;2.00;;
18651;SDS011;9455;54.302;10.124;2023-03-23T13:23:20;10.57;;;3.23;;
18651;SDS011;9455;54.302;10.124;2023-03-23T13:25:49;9.07;;;2.23;;
18651;SDS011;9455;54.302;10.124;2023-03-23T13:28:19;19.90;;;2.77;;
18651;SDS011;9455;54.302;10.124;2023-03-23T13:30:58;8.10;;;2.23;;
18651;SDS011;9455;54.302;10.124;2023-03-23T13:33:30;12.77;;;2.67;;
18651;SDS011;9455;54.302;10.124;2023-03-23T13:36:03;19.20;;;2.40;;
18651;SDS011;9455;54.302;10.124;2023-03-23T13:38:34;13.30;;;2.40;;
18651;SDS011;9455;54.302;10.124;2023-03-23T13:41:05;16.03;;;2.53;;
18651;SDS011;9455;54.302;10.124;2023-03-23T13:43:35;22.33;;;2.23;;
18651;SDS011;9455;54.302;10.124;2023-03-23T13:46:08;19.37;;;3.40;;
18651;SDS011;9455;54.302;10.124;2023-03-23T13:48:42;15.20;;;2.30;;
18651;SDS011;9455;54.302;10.124;2023-03-23T13:51:24;14.07;;;3.20;;
18651;SDS011;9455;54.302;10.124;2023-03-23T13:54:04;17.23;;;2.97;;
18651;SDS011;9455;54.302;10.124;2023-03-23T13:56:35;19.73;;;2.77;;
18651;SDS011;9455;54.302;10.124;2023-03-23T13:59:06;10.50;;;2.77;;
18651;SDS011;9455;54.302;10.124;2023-03-23T14:01:36;26.40;;;2.67;;
18651;SDS011;9455;54.302;10.124;2023-03-23T14:04:07;12.93;;;2.50;;
18651;SDS011;9455;54.302;10.124;2023-03-23T14:06:39;18.63;;;2.70;;
18651;SDS011;9455;54.302;10.124;2023-03-23T14:09:06;13.00;;;3.70;;
18651;SDS011;9455;54.302;10.124;2023-03-23T14:11:45;16.43;;;2.70;;
18651;SDS011;9455;54.302;10.124;2023-03-23T14:14:17;16.73;;;3.27;;
18651;SDS011;9455;54.302;10.124;2023-03-23T14:16:50;11.20;;;2.13;;
18651;SDS011;9455;54.302;10.124;2023-03-23T14:19:18;18.63;;;2.67;;
18651;SDS011;9455;54.302;10.124;2023-03-23T14:21:49;14.17;;;2.27;;
18651;SDS011;9455;54.302;10.124;2023-03-23T14:24:20;17.20;;;3.30;;
18651;SDS011;9455;54.302;10.124;2023-03-23T14:26:49;20.20;;;3.00;;
18651;SDS011;9455;54.302;10.124;2023-03-23T14:29:17;13.17;;;2.43;;
18651;SDS011;9455;54.302;10.124;2023-03-23T14:31:44;25.40;;;2.90;;
18651;SDS011;9455;54.302;10.124;2023-03-23T14:34:19;16.53;;;2.40;;
18651;SDS011;9455;54.302;10.124;2023-03-23T14:36:48;11.87;;;2.53;;
18651;SDS011;9455;54.302;10.124;2023-03-23T14:39:21;7.73;;;1.90;;
18651;SDS011;9455;54.302;10.124;2023-03-23T14:41:50;12.73;;;2.60;;
18651;SDS011;9455;54.302;10.124;2023-03-23T14:44:21;16.03;;;2.13;;
18651;SDS011;9455;54.302;10.124;2023-03-23T14:46:51;16.60;;;2.83;;
18651;SDS011;9455;54.302;10.124;2023-03-23T14:49:24;17.83;;;2.70;;
18651;SDS011;9455;54.302;10.124;2023-03-23T14:51:56;26.50;;;3.53;;
18651;SDS011;9455;54.302;10.124;2023-03-23T14:54:24;27.23;;;3.03;;
18651;SDS011;9455;54.302;10.124;2023-03-23T14:56:52;16.37;;;2.70;;
18651;SDS011;9455;54.302;10.124;2023-03-23T14:59:19;12.57;;;2.33;;
18651;SDS011;9455;54.302;10.124;2023-03-23T15:01:47;17.73;;;2.30;;
18651;SDS011;9455;54.302;10.124;2023-03-23T15:04:18;14.10;;;3.53;;
18651;SDS011;9455;54.302;10.124;2023-03-23T15:06:47;14.57;;;2.20;;
18651;SDS011;9455;54.302;10.124;2023-03-23T15:09:17;15.37;;;2.00;;
18651;SDS011;9455;54.302;10.124;2023-03-23T15:11:50;15.93;;;3.13;;
18651;SDS011;9455;54.302;10.124;2023-03-23T15:14:20;17.43;;;2.83;;